Have a Safe July 4th! 

Flight Track Log - Related Links

Times and Time Zones

All times are in EDT time to prevent confusion due to time zone crossing. See the SKW5457 flight status page for this flight to view local times or setup timezone preferences in your user account.

Time Position Orientation Groundspeed Altitude Reporting Facility
EDT Latitude Longitude Course Direction KTS MPH feet Rate Location/Type
Wed 09:03:54 AM 39.7428 -121.8422 197° South 178 205 2,400  Level Oakland Center
Wed 09:04:55 AM 39.7072 -121.8797 219° Southwest 201 231 4,300 1,636 Climbing Oakland Center
Wed 09:05:55 AM 39.6539 -121.9133 206° Southwest 212 244 5,700 1,700 Climbing Oakland Center
Wed 09:06:00 AM 39.6435 -122.0838 198° South  Level FlightAware Approximate
Wed 09:06:55 AM 39.6006 -121.9475 206° Southwest 214 246 7,700  Level Oakland Center
Wed 09:07:00 AM 39.5624 -122.1177 191° South  Level FlightAware Approximate
Wed 09:07:56 AM 39.5461 -121.9828 207° Southwest 218 251 9,600  Level Oakland Center
Wed 09:08:00 AM 39.4794 -122.1416 197° South  Level FlightAware Approximate
Wed 09:08:56 AM 39.4919 -122.0158 205° Southwest 216 249 11,300  Level Oakland Center
Wed 09:09:00 AM 39.4150 -122.1674 197° South  Level FlightAware Approximate
Wed 09:09:56 AM 39.4300 -122.0528 205° Southwest 223 257 13,000  Level Oakland Center
Wed 09:10:57 AM 39.3711 -122.0903 206° Southwest 231 266 14,400 1,388 Climbing Oakland Center
Wed 09:11:57 AM 39.3111 -122.1281 206° Southwest 237 273 15,800 1,289 Climbing Oakland Center
Wed 09:12:58 AM 39.2519 -122.1633 205° Southwest 236 272 17,000 645 Climbing Oakland Center
Wed 09:13:58 AM 39.1875 -122.2025 205° Southwest 248 285 17,100  Climbing Oakland Center
Wed 09:14:58 AM 39.1178 -122.2483 207° Southwest 271 312 17,000  Descending Oakland Center
Wed 09:15:59 AM 39.0408 -122.2922 204° Southwest 296 341 17,100 50 Climbing Oakland Center
Wed 09:16:59 AM 38.9672 -122.3367 205° Southwest 295 339 17,100 -50 Level Oakland Center
Wed 09:18:00 AM 38.8942 -122.3814 205° Southwest 293 337 17,000 -50 Descending Oakland Center
Wed 09:19:00 AM 38.8214 -122.4261 206° Southwest 291 335 17,000 50 Level Oakland Center
Wed 09:20:01 AM 38.7478 -122.4703 205° Southwest 292 336 17,100  Climbing Oakland Center
Wed 09:21:02 AM 38.6747 -122.5131 205° Southwest 290 334 17,000 -50 Descending Oakland Center
Wed 09:22:02 AM 38.6036 -122.5569 206° Southwest 288 331 17,000  Level Oakland Center
Wed 09:23:03 AM 38.5297 -122.6019 205° Southwest 293 337 17,000  Level Oakland Center
Wed 09:24:03 AM 38.4394 -122.6400 198° South 294 338 17,000  Level Oakland Center
Wed 09:25:04 AM 38.3575 -122.6439 182° South 295 339 17,000  Level Oakland Center
Wed 09:26:04 AM 38.2761 -122.6511 184° South 295 339 17,000 -99 Level Oakland Center
Wed 09:27:05 AM 38.1967 -122.6561 183° South 290 334 16,800 -934 Descending Oakland Center
Wed 09:28:06 AM 38.1119 -122.6625 183° South 304 350 15,100 -1,884 Descending Oakland Center
Wed 09:29:06 AM 38.0219 -122.6700 184° South 320 368 13,000 -1,934 Descending Oakland Center
Wed 09:30:07 AM 37.9369 -122.6744 182° South 316 364 11,200 -1,041 Descending Oakland Center
Wed 09:31:07 AM 37.8653 -122.6375 158° South 311 358 10,900 -108 Descending Oakland Center
Wed 09:31:58 AM 37.8167 -122.5833 139° Southeast 273 314 11,000 51 Climbing Northern Cal TRACON
Wed 09:33:04 AM 37.7500 -122.5167 142° Southeast 265 305 11,000  Level Northern Cal TRACON
Wed 09:33:52 AM 37.7000 -122.4667 142° Southeast 264 304 11,000 53 Level Northern Cal TRACON
Wed 09:34:58 AM 37.6333 -122.4000 142° Southeast 270 311 11,100 -211 Climbing Northern Cal TRACON
Wed 09:35:46 AM 37.5833 -122.3500 142° Southeast 275 316 10,600 -1,151 Descending Northern Cal TRACON
Wed 09:36:11 AM 37.5606 -122.3375 156° South 273 314 9,700 -2,372 Descending Oakland Center
Wed 09:37:12 AM 37.4900 -122.2933 154° Southeast 283 326 7,200 -2,430 Descending Oakland Center
Wed 09:38:12 AM 37.4486 -122.2231 127° Southeast 264 304 4,800 -1,636 Descending Oakland Center
Wed 09:39:13 AM 37.4683 -122.1683 66° East 215 247 3,900 -738 Descending Oakland Center
Wed 09:40:14 AM 37.5183 -122.1778 351° North 195 224 3,300 -885 Descending Oakland Center
Wed 09:41:15 AM 37.5558 -122.2247 315° West 195 224 2,100 -934 Descending Oakland Center
Wed 09:42:16 AM 37.5769 -122.2714 300° West 172 198 1,400 -689 Descending Oakland Center

Login

Don't have an account? Register now (free) for customized features, flight alerts, and more!